Time;durP1;ratioP1;P1;durP2;ratioP2;P2;SDS_P1;SDS_P2;PMS_P1;PMS_P2;Temp;Humidity;BMP_temperature;BMP_pressure;BME280_temperature;BME280_humidity;BME280_pressure;Samples;Min_cycle;Max_cycle;Signal;HPM_P1;HPM_P2
2022/02/27 00:01:34;;;;;;;15.03;7.40;;;-0.30;96.80;;;-1.97;91.58;99524.00;5019790;28;21016;-79
2022/02/27 00:04:01;;;;;;;9.83;7.20;;;-0.30;96.80;;;-2.01;91.46;99515.38;5019254;28;20504;-78
2022/02/27 00:06:28;;;;;;;14.73;7.67;;;-0.30;96.30;;;-2.04;91.54;99528.81;5037511;28;20477;-78
2022/02/27 00:08:55;;;;;;;17.30;7.13;;;-0.30;96.00;;;-2.04;91.56;99526.19;5020141;28;20824;-78
2022/02/27 00:11:22;;;;;;;13.70;6.73;;;-0.30;96.40;;;-2.01;91.52;99528.63;5037230;28;20449;-78
2022/02/27 00:13:50;;;;;;;10.83;6.77;;;-0.40;96.90;;;-2.15;92.60;99510.13;5019886;28;20481;-78
2022/02/27 00:16:17;;;;;;;16.00;7.03;;;-0.40;97.30;;;-2.07;92.53;99522.88;5037022;28;20521;-79
2022/02/27 00:18:44;;;;;;;11.77;7.97;;;-0.40;97.80;;;-2.08;91.91;99526.47;5039785;28;20497;-79
2022/02/27 00:21:11;;;;;;;15.97;7.33;;;-0.40;97.90;;;-2.12;92.54;99525.81;5041873;28;20529;-78
2022/02/27 00:23:38;;;;;;;13.13;8.13;;;-0.40;97.10;;;-2.00;92.07;99525.03;5019900;28;20427;-79
2022/02/27 00:26:05;;;;;;;10.40;7.67;;;-0.40;97.60;;;-2.05;92.23;99521.81;5018799;28;20462;-79
2022/02/27 00:28:32;;;;;;;14.27;6.97;;;-0.40;96.80;;;-2.05;92.10;99516.50;5019984;28;20504;-79
2022/02/27 00:31:00;;;;;;;13.10;7.07;;;-0.40;96.90;;;-2.03;92.09;99525.22;5036844;28;20437;-76
2022/02/27 00:33:27;;;;;;;13.63;7.83;;;-0.40;96.50;;;-1.93;91.96;99524.63;5036178;28;20750;-77
2022/02/27 00:35:54;;;;;;;17.33;7.50;;;-0.30;97.00;;;-1.92;91.31;99521.03;5018741;28;20521;-77
2022/02/27 00:38:21;;;;;;;10.97;6.80;;;-0.30;96.30;;;-2.07;91.85;99515.75;5018867;28;20804;-78
2022/02/27 00:40:48;;;;;;;17.37;8.37;;;-0.40;96.40;;;-2.06;91.56;99509.50;5036423;28;20449;-78
2022/02/27 00:43:15;;;;;;;14.53;7.47;;;-0.40;97.10;;;-2.04;92.17;99518.22;5036302;28;20526;-77
2022/02/27 00:45:42;;;;;;;15.60;7.77;;;-0.40;96.90;;;-2.00;92.01;99518.88;5018219;28;20470;-77
2022/02/27 00:48:10;;;;;;;13.93;7.30;;;-0.40;97.70;;;-1.90;91.68;99519.13;5019249;28;20487;-77
2022/02/27 00:50:37;;;;;;;17.80;7.77;;;-0.30;96.70;;;-2.00;92.14;99511.78;5036796;28;20557;-78
2022/02/27 00:53:06;;;;;;;19.80;8.10;;;-0.30;95.90;;;-1.91;91.21;99517.41;5018930;28;20525;-78
2022/02/27 00:55:33;;;;;;;11.97;7.37;;;-0.30;95.80;;;-1.91;91.17;99512.13;5019148;28;20443;-78
2022/02/27 00:58:00;;;;;;;15.27;6.80;;;-0.30;95.60;;;-1.91;91.38;99512.13;5018341;28;20513;-78
2022/02/27 01:00:27;;;;;;;13.50;7.87;;;-0.30;95.80;;;-1.87;91.66;99505.69;5018445;28;20504;-79
2022/02/27 01:02:54;;;;;;;15.43;7.30;;;-0.20;95.50;;;-1.85;90.92;99506.44;5036221;28;20550;-78
2022/02/27 01:05:22;;;;;;;14.30;6.50;;;-0.20;95.00;;;-1.87;91.04;99508.34;5035152;28;20561;-78
2022/02/27 01:07:49;;;;;;;15.13;7.40;;;-0.20;94.70;;;-1.85;91.08;99503.78;5035960;28;20470;-78
2022/02/27 01:10:16;;;;;;;15.07;7.40;;;-0.20;94.70;;;-1.94;91.25;99496.44;5018429;28;20474;-79
2022/02/27 01:12:43;;;;;;;12.70;7.37;;;-0.20;94.90;;;-1.95;91.12;99500.91;5035710;28;20447;-79
2022/02/27 01:15:11;;;;;;;12.20;6.97;;;-0.30;94.50;;;-1.94;91.26;99497.28;5018112;28;20481;-79
2022/02/27 01:17:38;;;;;;;12.83;7.30;;;-0.30;94.90;;;-2.05;91.53;99489.19;5035762;28;20466;-78
2022/02/27 01:20:07;;;;;;;18.83;7.90;;;-0.30;95.30;;;-1.98;91.55;99494.94;5035688;28;20532;-79
2022/02/27 01:22:35;;;;;;;12.73;7.23;;;-0.30;96.20;;;-1.95;91.32;99494.72;5035907;28;20463;-78
2022/02/27 01:25:02;;;;;;;19.60;8.70;;;-0.30;96.00;;;-2.38;91.87;99442.72;5035964;28;20522;-79
2022/02/27 01:27:29;;;;;;;16.30;8.20;;;-0.30;96.50;;;-3.04;91.53;99334.81;5017813;28;20474;-78
2022/02/27 01:29:57;;;;;;;13.70;8.13;;;-0.30;96.70;;;-2.03;92.00;99498.75;5017805;28;20470;-78
2022/02/27 01:32:24;;;;;;;12.30;7.93;;;-0.40;96.20;;;-2.06;92.11;99504.22;5035530;28;20522;-78
2022/02/27 01:34:51;;;;;;;14.90;7.80;;;-0.40;96.50;;;-2.18;92.32;99478.53;5017622;28;20533;-76
2022/02/27 01:37:18;;;;;;;15.93;7.73;;;-0.40;97.10;;;-2.11;92.46;99489.59;5035745;28;20438;-78
2022/02/27 01:39:46;;;;;;;15.20;8.37;;;-0.40;97.00;;;-2.20;92.65;99473.31;5035362;28;20460;-76
2022/02/27 01:42:15;;;;;;;14.80;8.17;;;-0.40;98.00;;;-2.11;92.69;99490.41;5035076;28;20967;-76
2022/02/27 01:44:43;;;;;;;14.57;7.70;;;-0.40;97.80;;;-2.14;92.66;99487.97;5017395;28;20854;-76
2022/02/27 01:47:12;;;;;;;15.23;8.90;;;-0.40;98.40;;;-2.07;92.70;99497.22;5035509;28;20470;-76
2022/02/27 01:49:39;;;;;;;12.30;8.13;;;-0.40;98.10;;;-2.11;92.79;99490.41;5035288;28;20438;-78
2022/02/27 01:52:08;;;;;;;15.40;9.40;;;-0.40;98.50;;;-2.10;92.79;99493.94;5035050;28;20449;-78
2022/02/27 01:54:36;;;;;;;12.87;7.20;;;-0.40;98.50;;;-2.14;92.79;99490.63;5034891;28;20975;-78
2022/02/27 01:57:05;;;;;;;13.37;7.93;;;-0.40;99.00;;;-2.23;93.51;99477.94;5017435;28;20470;-78
2022/02/27 01:59:33;;;;;;;14.40;8.20;;;-0.50;99.90;;;-2.15;93.37;99487.09;5035337;28;20447;-76
2022/02/27 02:02:00;;;;;;;15.80;9.53;;;-0.50;99.90;;;-2.14;93.26;99482.69;5034838;28;20426;-76
2022/02/27 02:04:26;;;;;;;12.73;7.97;;;-0.50;99.90;;;-2.13;93.88;99484.38;5017456;28;20556;-76
2022/02/27 02:06:53;;;;;;;16.07;9.00;;;-0.50;99.90;;;-2.06;93.40;99477.72;5034733;28;20516;-79
2022/02/27 02:09:20;;;;;;;18.97;9.23;;;-0.40;99.90;;;-2.05;93.65;99474.13;5016926;28;20942;-78
2022/02/27 02:11:48;;;;;;;22.93;9.67;;;-0.40;99.90;;;-2.02;93.68;99468.66;5034370;28;20521;-79
2022/02/27 02:14:16;;;;;;;14.53;8.40;;;-0.40;99.90;;;-1.92;93.27;99474.19;5034921;28;20427;-78
2022/02/27 02:16:46;;;;;;;18.47;9.70;;;-0.30;99.80;;;-1.87;92.84;99468.59;5019484;28;20525;-79
2022/02/27 02:19:13;;;;;;;22.90;9.40;;;-0.20;98.80;;;-1.94;92.82;99454.03;5035769;28;20481;-78
2022/02/27 02:21:44;;;;;;;16.40;10.13;;;-0.20;98.10;;;-1.80;93.06;99471.69;5018374;28;20445;-79
2022/02/27 02:24:12;;;;;;;17.93;9.17;;;-0.20;97.90;;;-1.72;92.58;99464.94;5035659;28;20466;-78
2022/02/27 02:26:41;;;;;;;17.10;8.57;;;-0.10;97.50;;;-1.62;92.33;99459.00;5034995;28;20983;-78
2022/02/27 02:29:11;;;;;;;17.70;8.83;;;0.00;96.30;;;-1.67;92.00;99451.38;5041580;28;20897;-78
2022/02/27 02:31:39;;;;;;;14.63;8.33;;;0.00;95.50;;;-1.66;91.44;99453.09;5041328;28;20443;-78
2022/02/27 02:34:07;;;;;;;20.87;8.13;;;0.00;95.50;;;-1.55;91.12;99455.03;5035428;28;20521;-75
2022/02/27 02:36:35;;;;;;;13.43;9.10;;;0.10;94.80;;;-1.60;90.99;99451.81;5034872;28;20534;-78
2022/02/27 02:39:07;;;;;;;13.17;8.40;;;0.10;94.40;;;-2.39;90.55;99316.59;5017167;28;20529;-75
2022/02/27 02:41:34;;;;;;;21.00;8.40;;;0.10;94.40;;;-1.66;90.68;99439.84;5016741;28;20485;-77
2022/02/27 02:44:01;;;;;;;15.23;8.40;;;0.10;94.30;;;-1.67;91.38;99439.94;5034012;28;20434;-76
2022/02/27 02:46:29;;;;;;;12.93;9.00;;;0.00;94.70;;;-1.70;91.36;99435.66;5034142;28;20937;-77
2022/02/27 02:48:56;;;;;;;16.23;9.40;;;0.00;94.60;;;-1.68;90.77;99438.22;5016178;28;20435;-77
2022/02/27 02:51:24;;;;;;;18.23;8.57;;;0.00;94.50;;;-1.72;91.09;99443.75;5016425;28;20441;-77
2022/02/27 02:53:51;;;;;;;19.23;8.53;;;-0.10;94.80;;;-1.85;91.35;99430.44;5016187;28;20522;-77
2022/02/27 02:56:19;;;;;;;20.53;8.30;;;-0.10;94.80;;;-1.69;90.74;99447.13;5034137;28;20534;-77
2022/02/27 02:58:47;;;;;;;21.87;8.03;;;0.00;94.60;;;-1.71;90.88;99442.78;5016743;28;20749;-78
2022/02/27 03:01:16;;;;;;;19.23;8.40;;;-0.10;94.60;;;-1.69;90.98;99437.38;5015794;28;20771;-77
2022/02/27 03:03:46;;;;;;;14.83;7.93;;;-0.10;94.60;;;-1.75;91.41;99437.78;5033830;28;20438;-79
2022/02/27 03:06:13;;;;;;;16.77;8.30;;;-0.10;94.80;;;-1.66;90.96;99442.50;5033824;28;20584;-76
2022/02/27 03:08:41;;;;;;;15.60;8.63;;;0.00;94.80;;;-1.66;90.69;99442.50;5034271;28;20538;-76
2022/02/27 03:11:08;;;;;;;15.93;8.67;;;0.00;94.00;;;-1.72;91.29;99427.84;5015920;28;20995;-77
2022/02/27 03:13:38;;;;;;;12.00;8.03;;;0.00;94.10;;;-1.79;90.67;99421.22;5033729;28;20466;-77
2022/02/27 03:16:06;;;;;;;13.00;7.63;;;-0.10;94.30;;;-1.74;91.08;99429.75;5033817;28;20435;-78
2022/02/27 03:18:33;;;;;;;15.53;8.70;;;-0.10;94.60;;;-1.72;91.37;99424.31;5015897;28;20538;-76
2022/02/27 03:21:03;;;;;;;13.63;8.50;;;-0.10;94.60;;;-1.70;91.16;99422.41;5033765;28;20533;-78
2022/02/27 03:23:31;;;;;;;13.87;8.60;;;-0.10;94.60;;;-1.78;90.62;99422.94;5015779;28;20788;-78
2022/02/27 03:25:59;;;;;;;11.67;8.23;;;-0.10;94.30;;;-1.71;91.09;99424.22;5038131;28;20963;-77
2022/02/27 03:28:26;;;;;;;20.47;8.83;;;-0.10;94.10;;;-1.71;91.18;99426.88;5037594;28;20889;-77
2022/02/27 03:30:55;;;;;;;18.20;10.10;;;-0.10;94.10;;;-1.72;90.68;99427.84;5019866;28;20497;-77
2022/02/27 03:33:22;;;;;;;15.73;8.27;;;-0.10;94.10;;;-1.81;91.09;99432.91;5038318;28;20967;-76
2022/02/27 03:35:49;;;;;;;19.20;9.83;;;-0.10;94.30;;;-1.84;90.84;99428.66;5019527;28;20451;-78
2022/02/27 03:38:16;;;;;;;13.83;7.87;;;-0.20;95.20;;;-1.82;91.32;99440.00;5037597;28;20981;-78
2022/02/27 03:40:43;;;;;;;16.57;9.20;;;-0.20;95.00;;;-1.81;91.05;99436.38;5019886;28;20559;-77
2022/02/27 03:43:10;;;;;;;14.70;8.77;;;-0.20;94.80;;;-1.81;91.20;99428.44;5037214;28;20541;-77
2022/02/27 03:45:37;;;;;;;19.23;9.30;;;-0.20;94.80;;;-1.78;91.18;99433.53;5036909;28;20496;-77
2022/02/27 03:48:06;;;;;;;19.90;11.03;;;-0.20;94.50;;;-1.76;90.98;99436.09;5019734;28;20478;-77
2022/02/27 03:50:33;;;;;;;15.17;8.63;;;-0.20;94.40;;;-1.94;91.10;99427.53;5037507;28;20500;-77
2022/02/27 03:53:00;;;;;;;20.97;8.77;;;-0.20;94.10;;;-1.87;91.47;99436.81;5037169;28;20474;-77
2022/02/27 03:55:27;;;;;;;16.17;8.87;;;-0.20;94.60;;;-1.96;91.04;99418.84;5036833;28;20950;-75
2022/02/27 03:57:54;;;;;;;15.13;9.73;;;-0.30;95.40;;;-1.92;91.11;99433.59;5019396;28;20430;-76
2022/02/27 04:00:21;;;;;;;14.20;8.67;;;-0.30;94.80;;;-1.92;91.38;99430.94;5019273;28;20972;-77
2022/02/27 04:02:48;;;;;;;19.97;8.47;;;-0.30;95.20;;;-2.00;91.02;99429.66;5019360;28;20533;-78
2022/02/27 04:05:18;;;;;;;13.00;8.27;;;-0.40;95.30;;;-2.13;91.54;99439.34;5019821;28;20525;-77
2022/02/27 04:07:46;;;;;;;14.70;9.23;;;-0.40;94.80;;;-2.17;92.30;99427.25;5019070;28;20997;-77
2022/02/27 04:10:14;;;;;;;15.87;8.40;;;-0.50;96.30;;;-2.44;92.72;99446.59;5045354;28;20482;-76
2022/02/27 04:12:41;;;;;;;14.30;8.90;;;-0.70;96.00;;;-2.50;93.03;99452.28;5050087;28;21009;-77
2022/02/27 04:15:11;;;;;;;12.97;8.03;;;-0.80;97.30;;;-2.60;93.20;99447.56;5042070;28;20934;-76
2022/02/27 04:17:38;;;;;;;18.23;8.60;;;-1.00;99.90;;;-2.51;93.51;99447.94;5021328;28;20453;-77
2022/02/27 04:20:07;;;;;;;12.33;8.43;;;-1.00;99.90;;;-2.54;93.52;99453.41;5038344;28;20481;-75
2022/02/27 04:22:35;;;;;;;15.43;8.90;;;-1.00;99.90;;;-2.51;93.03;99451.44;5037120;28;20533;-77
2022/02/27 04:25:02;;;;;;;12.10;7.90;;;-0.90;99.90;;;-2.38;93.09;99455.97;5037460;28;20979;-77
2022/02/27 04:27:29;;;;;;;19.67;9.87;;;-0.80;99.90;;;-2.42;92.90;99452.66;5036688;28;20462;-76
2022/02/27 04:29:59;;;;;;;16.90;10.40;;;-0.80;99.90;;;-2.34;93.34;99455.69;5019405;28;20534;-77
2022/02/27 04:32:26;;;;;;;16.20;9.20;;;-0.70;99.90;;;-2.51;93.02;99429.41;5019272;28;20840;-79
2022/02/27 04:34:52;;;;;;;12.77;9.93;;;-0.70;98.50;;;-2.43;93.35;99461.53;5018537;28;20533;-79
2022/02/27 04:37:19;;;;;;;17.37;9.30;;;-0.80;99.90;;;-2.41;93.33;99462.28;5036325;28;20536;-78
2022/02/27 04:39:48;;;;;;;14.17;9.07;;;-0.80;99.90;;;-2.41;93.66;99464.94;5018422;28;20880;-78
2022/02/27 04:42:15;;;;;;;21.10;10.47;;;-0.80;99.90;;;-2.41;93.48;99462.28;5018714;28;20442;-78
2022/02/27 04:44:42;;;;;;;15.20;9.57;;;-0.80;99.90;;;-2.49;93.67;99459.28;5018746;28;20481;-78
2022/02/27 04:47:09;;;;;;;21.53;9.33;;;-0.80;99.90;;;-2.57;93.73;99457.97;5036763;28;20882;-78
2022/02/27 04:49:36;;;;;;;16.07;8.30;;;-0.90;99.70;;;-2.59;93.56;99466.94;5018647;28;20448;-79
2022/02/27 04:52:04;;;;;;;17.43;9.47;;;-0.90;99.10;;;-2.65;93.69;99465.56;5036166;28;20453;-78
2022/02/27 04:54:32;;;;;;;16.50;10.20;;;-1.00;99.90;;;-2.64;94.07;99461.97;5036099;28;20439;-78
2022/02/27 04:57:00;;;;;;;24.40;9.53;;;-1.00;99.90;;;-2.77;93.87;99429.25;5036496;28;20504;-78
2022/02/27 04:59:27;;;;;;;16.43;9.77;;;-0.90;99.90;;;-2.57;94.41;99457.97;5035978;28;20501;-79
2022/02/27 05:01:54;;;;;;;15.67;9.43;;;-0.90;99.90;;;-2.56;93.92;99464.94;5017967;28;20442;-79
2022/02/27 05:04:21;;;;;;;17.00;8.93;;;-0.90;99.90;;;-2.62;94.12;99465.34;5018512;28;20529;-79
2022/02/27 05:06:48;;;;;;;19.40;9.50;;;-0.90;99.90;;;-2.61;93.79;99464.41;5017923;28;20462;-81
2022/02/27 05:09:17;;;;;;;19.80;9.97;;;-1.00;99.90;;;-2.65;93.94;99460.25;5036318;28;20434;-81
2022/02/27 05:11:45;;;;;;;15.57;9.60;;;-0.90;99.90;;;-2.58;94.10;99466.00;5019077;28;20442;-76
2022/02/27 05:14:14;;;;;;;16.00;9.47;;;-0.90;99.90;;;-2.57;93.67;99463.25;5036337;28;20470;-79
2022/02/27 05:16:41;;;;;;;16.83;9.90;;;-0.90;99.90;;;-2.50;94.31;99466.38;5018985;28;20443;-79
2022/02/27 05:19:08;;;;;;;16.80;9.70;;;-0.90;99.90;;;-2.49;93.90;99468.06;5036023;28;20451;-78
2022/02/27 05:21:35;;;;;;;17.53;9.57;;;-0.80;99.90;;;-2.78;93.51;99423.09;5035989;28;20529;-78
2022/02/27 05:24:03;;;;;;;25.40;10.00;;;-0.80;99.90;;;-2.45;93.59;99476.69;5036325;28;20522;-80
2022/02/27 05:26:30;;;;;;;16.63;9.77;;;-0.80;99.40;;;-2.45;93.67;99466.09;5036129;28;20470;-77
2022/02/27 05:28:57;;;;;;;14.87;9.50;;;-0.70;99.30;;;-2.37;93.12;99484.97;5036268;28;20463;-78
2022/02/27 05:31:25;;;;;;;16.37;10.17;;;-0.70;98.60;;;-2.34;92.80;99484.81;5035544;28;20526;-77
2022/02/27 05:33:53;;;;;;;19.23;10.67;;;-0.70;98.10;;;-2.36;92.70;99488.47;5035406;28;20485;-77
2022/02/27 05:36:19;;;;;;;18.10;10.80;;;-0.70;97.70;;;-2.34;92.97;99492.75;5034327;28;20884;-80
2022/02/27 05:38:46;;;;;;;21.10;9.57;;;-0.70;97.60;;;-2.36;92.83;99502.56;5017753;28;21033;-80
2022/02/27 05:41:14;;;;;;;20.90;9.60;;;-0.70;97.60;;;-2.40;92.59;99490.47;5017810;28;20450;-81
2022/02/27 05:43:41;;;;;;;13.00;9.30;;;-0.70;97.70;;;-2.45;92.52;99492.56;5017763;28;20443;-79
2022/02/27 05:46:09;;;;;;;15.80;9.50;;;-0.70;97.90;;;-2.36;92.53;99507.84;5035242;28;20534;-81
2022/02/27 05:48:37;;;;;;;17.57;9.60;;;-0.70;96.60;;;-2.37;92.66;99506.16;5017619;28;20660;-79
2022/02/27 05:51:04;;;;;;;19.77;10.00;;;-0.70;97.70;;;-2.39;92.90;99513.34;5017952;28;20518;-81
2022/02/27 05:53:31;;;;;;;17.10;10.63;;;-0.70;97.20;;;-2.35;92.89;99514.00;5017727;28;20545;-80
2022/02/27 05:55:58;;;;;;;13.57;9.20;;;-0.70;97.60;;;-2.31;92.57;99505.78;5017705;28;20918;-76
2022/02/27 05:58:26;;;;;;;17.03;9.17;;;-0.70;96.80;;;-2.34;92.48;99490.09;5017309;28;20442;-79
2022/02/27 06:00:54;;;;;;;14.53;9.17;;;-0.60;96.90;;;-2.56;92.06;99443.78;5018189;28;20474;-87
2022/02/27 06:03:21;;;;;;;20.00;9.17;;;-0.60;96.20;;;-2.15;91.18;99515.41;5018445;28;20992;-83
2022/02/27 06:05:49;;;;;;;16.00;8.83;;;-0.50;95.20;;;-2.12;91.21;99515.22;5036441;28;20454;-81
2022/02/27 06:08:16;;;;;;;16.40;9.57;;;-0.50;95.20;;;-2.19;91.29;99503.31;5030639;28;20458;-82
2022/02/27 06:10:43;;;;;;;15.07;9.10;;;-0.50;94.70;;;-2.07;91.31;99521.06;5019589;28;20462;-77
2022/02/27 06:13:10;;;;;;;13.80;9.47;;;-0.50;94.80;;;-2.13;90.67;99516.16;5024682;28;20510;-74
2022/02/27 06:15:37;;;;;;;19.77;9.57;;;-0.40;94.20;;;-2.09;91.24;99525.59;5044487;28;20519;-83
2022/02/27 06:18:05;;;;;;;15.83;9.07;;;-0.40;93.60;;;-1.97;91.12;99528.44;5049939;28;20469;-84
2022/02/27 06:20:32;;;;;;;14.47;8.97;;;-0.30;93.90;;;-2.32;90.18;99468.81;5038732;28;20492;-84
2022/02/27 06:23:00;;;;;;;12.13;7.80;;;-0.30;93.30;;;-1.84;90.02;99532.00;5021711;28;20526;-81
2022/02/27 06:25:27;;;;;;;14.03;8.17;;;-0.20;92.70;;;-1.83;89.74;99536.34;5036039;28;20525;-80
2022/02/27 06:27:54;;;;;;;13.00;9.07;;;-0.20;92.50;;;-1.83;89.94;99540.78;5017727;28;20933;-75
2022/02/27 06:30:23;;;;;;;18.40;9.03;;;-0.20;92.30;;;-1.86;89.50;99541.84;5034589;28;20528;-73
2022/02/27 06:32:52;;;;;;;12.03;8.60;;;-0.20;92.30;;;-1.82;89.34;99540.69;5033722;28;20453;-74
2022/02/27 06:35:22;;;;;;;14.63;8.20;;;-0.20;92.00;;;-1.86;89.07;99539.19;5017371;28;20836;-73
2022/02/27 06:37:49;;;;;;;17.70;9.20;;;-0.20;91.80;;;-1.97;89.48;99528.44;5036558;28;20457;-86
2022/02/27 06:40:19;;;;;;;16.73;8.27;;;-0.20;91.80;;;-1.83;89.37;99544.28;5034610;28;20492;-75
2022/02/27 06:42:46;;;;;;;13.17;8.17;;;-0.20;91.80;;;-1.74;89.28;99554.31;5016680;28;20442;-76
2022/02/27 06:45:15;;;;;;;12.20;8.90;;;-0.10;91.60;;;-1.76;89.18;99545.59;5035875;28;20958;-87
2022/02/27 06:47:42;;;;;;;17.20;7.90;;;-0.10;91.20;;;-1.71;88.83;99556.75;5036351;28;20474;-85
2022/02/27 06:50:11;;;;;;;14.03;8.33;;;0.00;91.30;;;-1.66;88.29;99560.91;5035177;28;20938;-86
2022/02/27 06:52:38;;;;;;;14.20;8.60;;;0.00;90.90;;;-1.60;87.70;99557.84;5018240;28;21093;-87
2022/02/27 06:55:06;;;;;;;11.50;8.00;;;0.00;90.70;;;-1.58;87.92;99555.97;5035207;28;20439;-84
2022/02/27 06:57:35;;;;;;;13.63;8.63;;;0.00;90.70;;;-1.56;87.67;99559.38;5019118;28;21000;-84
2022/02/27 07:00:02;;;;;;;17.60;9.43;;;0.10;90.60;;;-1.59;87.81;99556.91;5036311;28;20450;-85
2022/02/27 07:02:28;;;;;;;17.47;9.13;;;0.10;90.40;;;-1.56;88.08;99559.38;5034542;28;20529;-83
2022/02/27 07:04:55;;;;;;;20.17;9.63;;;0.10;90.40;;;-1.47;88.10;99566.69;5017195;28;20462;-85
2022/02/27 07:07:22;;;;;;;17.90;8.60;;;0.20;90.40;;;-1.40;87.93;99558.34;5033164;28;20462;-84
2022/02/27 07:09:49;;;;;;;15.27;8.63;;;0.20;90.50;;;-1.36;88.02;99560.72;5034694;28;20530;-83
2022/02/27 07:12:16;;;;;;;19.90;9.20;;;0.20;90.40;;;-1.30;87.54;99567.38;5017295;28;20534;-85
2022/02/27 07:14:45;;;;;;;14.80;8.60;;;0.30;90.20;;;-1.27;87.70;99561.91;5037173;28;20442;-84
2022/02/27 07:17:11;;;;;;;12.40;8.40;;;0.30;90.10;;;-1.18;86.61;99571.06;5021121;28;20538;-80
2022/02/27 07:19:38;;;;;;;13.27;8.67;;;0.40;89.90;;;-1.05;86.48;99579.03;5024432;28;20857;-82
2022/02/27 07:22:06;;;;;;;16.20;9.27;;;0.50;89.50;;;-1.07;86.42;99583.59;5045638;28;20450;-81
2022/02/27 07:24:34;;;;;;;13.30;8.27;;;0.50;89.40;;;-0.97;86.01;99582.03;5025764;28;20443;-82
2022/02/27 07:27:01;;;;;;;13.60;9.10;;;0.60;88.90;;;-0.93;86.33;99578.22;5036631;28;20503;-82
2022/02/27 07:29:28;;;;;;;13.17;8.40;;;0.60;88.70;;;-1.03;86.42;99582.44;5017857;28;20537;-82
2022/02/27 07:31:56;;;;;;;11.80;9.13;;;0.60;88.10;;;-0.91;85.80;99586.91;5018567;28;20525;-82
2022/02/27 07:34:23;;;;;;;14.43;8.57;;;0.70;88.30;;;-0.93;85.59;99583.53;5037182;28;20469;-83
2022/02/27 07:36:51;;;;;;;13.83;9.80;;;0.70;87.40;;;-0.97;86.18;99586.47;5018419;28;20477;-83
2022/02/27 07:39:19;;;;;;;15.83;8.73;;;0.70;87.60;;;-1.12;85.54;99530.00;5019251;28;20461;-80
2022/02/27 07:41:46;;;;;;;12.53;8.97;;;0.80;87.50;;;-0.65;85.05;99586.97;5038444;28;20446;-80
2022/02/27 07:44:14;;;;;;;13.70;8.27;;;0.90;86.70;;;-0.53;84.60;99589.72;5035850;28;20430;-81
2022/02/27 07:46:41;;;;;;;12.80;9.30;;;1.10;85.80;;;-0.51;84.85;99585.16;5035642;28;20533;-80
2022/02/27 07:49:09;;;;;;;16.97;10.20;;;1.10;85.80;;;-0.38;84.44;99588.69;5018074;28;20469;-81
2022/02/27 07:51:36;;;;;;;14.90;8.00;;;1.20;85.60;;;-0.33;84.10;99586.53;5017229;28;20566;-80
2022/02/27 07:54:04;;;;;;;13.83;8.27;;;1.30;85.00;;;-0.25;83.85;99577.16;5015591;28;20847;-82
2022/02/27 07:56:31;;;;;;;15.17;8.60;;;1.30;83.80;;;-0.12;83.44;99591.28;5033419;28;20460;-81
2022/02/27 07:58:58;;;;;;;13.27;8.40;;;1.40;83.90;;;-0.02;82.32;99602.13;5041739;28;20507;-80
2022/02/27 08:01:25;;;;;;;13.30;9.07;;;1.60;82.50;;;0.04;82.37;99598.19;5053889;28;20427;-80
2022/02/27 08:03:52;;;;;;;9.83;7.30;;;1.60;82.30;;;0.10;81.83;99595.09;5036653;28;20538;-78
2022/02/27 08:06:21;;;;;;;13.07;8.10;;;1.70;81.40;;;0.19;81.73;99593.59;5035145;28;20473;-81
2022/02/27 08:08:47;;;;;;;14.03;9.00;;;1.70;81.40;;;0.34;81.24;99591.63;5053176;28;20489;-80
2022/02/27 08:11:14;;;;;;;10.60;8.00;;;1.90;80.80;;;0.53;80.62;99594.66;5055186;28;20469;-81
2022/02/27 08:13:42;;;;;;;12.57;8.30;;;2.00;80.30;;;0.58;80.03;99590.81;5043409;28;20462;-81
2022/02/27 08:16:09;;;;;;;11.17;7.83;;;2.10;80.10;;;0.72;78.81;99577.34;5037389;28;20473;-83
2022/02/27 08:18:36;;;;;;;12.23;7.77;;;2.20;78.60;;;0.77;78.46;99592.97;5037478;28;20466;-80
2022/02/27 08:21:04;;;;;;;11.80;6.77;;;2.30;78.10;;;0.64;77.52;99580.56;5019654;28;20438;-81
2022/02/27 08:23:33;;;;;;;10.50;7.67;;;2.30;76.90;;;0.75;77.39;99586.88;5019703;28;20525;-82
2022/02/27 08:26:00;;;;;;;11.33;6.90;;;2.30;76.80;;;0.80;76.93;99590.91;5039033;28;20895;-82
2022/02/27 08:28:28;;;;;;;14.17;7.57;;;2.30;76.50;;;0.82;76.46;99588.97;5019370;28;20462;-80
2022/02/27 08:30:55;;;;;;;13.23;7.17;;;2.40;76.00;;;0.87;75.85;99598.44;5037467;28;20526;-74
2022/02/27 08:33:24;;;;;;;12.83;6.90;;;2.40;75.40;;;1.01;75.19;99586.75;5036662;28;20457;-76
2022/02/27 08:35:52;;;;;;;16.77;7.00;;;2.50;75.00;;;1.06;74.22;99585.44;5034722;28;20949;-71
2022/02/27 08:38:20;;;;;;;11.43;6.93;;;2.60;74.40;;;1.22;73.33;99593.13;5018719;28;20470;-73
2022/02/27 08:40:50;;;;;;;15.33;6.97;;;2.70;73.50;;;1.28;72.60;99591.78;5036299;28;20446;-82
2022/02/27 08:43:18;;;;;;;13.23;7.17;;;2.80;72.90;;;1.35;71.71;99589.50;5036463;28;20441;-77
2022/02/27 08:45:45;;;;;;;7.50;5.57;;;2.90;72.30;;;1.05;70.21;99537.63;5036291;28;20486;-75
2022/02/27 08:48:12;;;;;;;7.07;5.80;;;2.90;70.80;;;1.25;70.24;99550.28;5036824;28;20502;-75
2022/02/27 08:50:39;;;;;;;8.30;6.13;;;3.00;70.80;;;1.54;69.40;99594.28;5035688;28;20831;-76
2022/02/27 08:53:06;;;;;;;10.53;5.63;;;3.00;69.70;;;1.61;69.16;99579.53;5035409;28;20472;-77
2022/02/27 08:55:54;;;;;;;7.83;5.47;;;3.10;69.70;;;1.83;67.97;99599.16;5036510;28;20493;-76
2022/02/27 08:58:21;;;;;;;9.87;6.20;;;3.30;69.00;;;1.84;67.29;99585.72;5036092;28;20529;-77
2022/02/27 09:00:48;;;;;;;6.53;4.90;;;3.40;68.00;;;1.87;64.53;99589.13;5018314;28;20464;-75
2022/02/27 09:03:15;;;;;;;8.03;5.10;;;3.40;65.00;;;1.97;64.16;99593.59;5034640;28;20474;-76
2022/02/27 09:05:43;;;;;;;12.83;5.33;;;3.50;64.40;;;2.04;63.52;99590.44;5018759;28;20443;-75
2022/02/27 09:08:10;;;;;;;7.23;5.27;;;3.50;63.30;;;1.75;64.01;99529.63;5036395;28;20466;-76
2022/02/27 09:10:37;;;;;;;8.97;5.60;;;3.60;63.60;;;2.30;63.49;99591.03;5036021;28;20922;-77
2022/02/27 09:13:05;;;;;;;6.40;4.20;;;3.70;63.50;;;2.33;61.10;99592.59;5018220;28;20856;-72
2022/02/27 09:15:33;;;;;;;5.70;4.47;;;3.80;61.30;;;2.57;58.87;99595.09;5036246;28;20448;-75
2022/02/27 09:17:59;;;;;;;4.30;3.00;;;4.00;58.80;;;2.64;56.57;99592.75;5017457;28;20726;-75
2022/02/27 09:20:26;;;;;;;6.50;4.00;;;4.10;56.90;;;2.76;57.42;99581.09;5035628;28;20445;-76
2022/02/27 09:22:53;;;;;;;4.57;3.30;;;4.10;57.00;;;2.95;56.26;99584.88;5017761;28;20534;-77
2022/02/27 09:25:21;;;;;;;4.23;3.13;;;4.30;56.10;;;2.97;55.08;99577.63;5017356;28;20787;-77
2022/02/27 09:27:48;;;;;;;5.60;3.50;;;4.40;54.60;;;2.79;55.51;99580.81;5017367;28;20481;-76
2022/02/27 09:30:18;;;;;;;4.00;3.60;;;4.30;54.10;;;2.87;55.30;99561.50;5017309;28;20442;-75
2022/02/27 09:32:45;;;;;;;4.13;3.77;;;4.40;54.00;;;2.72;54.85;99574.31;5017137;28;20875;-76
2022/02/27 09:35:12;;;;;;;4.90;3.70;;;4.30;53.20;;;2.69;55.51;99580.75;5038046;28;20533;-87
2022/02/27 09:37:39;;;;;;;7.87;3.83;;;4.20;53.30;;;2.75;55.19;99576.72;5048381;28;20445;-87
2022/02/27 09:40:09;;;;;;;4.03;3.23;;;4.20;53.40;;;2.83;55.26;99568.94;5014938;28;20450;-88
2022/02/27 09:42:36;;;;;;;6.30;4.53;;;4.30;53.10;;;2.61;54.19;99577.00;5019067;28;20526;-87
2022/02/27 09:45:04;;;;;;;5.20;3.70;;;4.10;52.60;;;2.68;54.47;99556.84;5019444;28;20446;-85
2022/02/27 09:47:33;;;;;;;6.27;3.40;;;4.20;52.60;;;2.85;54.80;99568.78;5034923;28;20452;-87
2022/02/27 09:50:01;;;;;;;5.23;3.70;;;4.30;52.60;;;2.86;53.80;99558.97;5037455;28;20486;-87
2022/02/27 09:52:28;;;;;;;5.73;3.10;;;4.40;52.40;;;2.95;53.42;99569.72;5029230;28;20443;-88
2022/02/27 09:54:55;;;;;;;4.30;3.50;;;4.40;52.00;;;3.07;53.59;99570.50;5020465;28;20439;-86
2022/02/27 09:57:23;;;;;;;5.90;3.40;;;4.50;52.10;;;3.18;53.27;99566.09;5029089;28;20486;-85
2022/02/27 09:59:51;;;;;;;5.90;3.57;;;4.50;51.80;;;3.22;53.14;99564.84;5031948;28;20432;-88
2022/02/27 10:02:18;;;;;;;6.30;3.47;;;4.60;51.70;;;3.21;52.18;99566.69;5029503;28;20467;-77
2022/02/27 10:04:48;;;;;;;4.33;2.90;;;4.70;51.20;;;3.41;52.32;99558.78;5002933;28;20451;-76
2022/02/27 10:07:18;;;;;;;4.07;2.90;;;4.80;50.90;;;3.40;50.89;99562.44;5021272;28;20440;-76
2022/02/27 10:09:47;;;;;;;4.67;2.97;;;4.80;50.10;;;3.42;50.55;99565.00;5016847;28;20490;-77
2022/02/27 10:12:18;;;;;;;3.70;3.40;;;4.90;49.70;;;3.31;51.28;99557.88;5015452;28;20444;-78
2022/02/27 10:15:04;;;;;;;4.80;3.17;;;4.80;49.90;;;2.68;51.46;99439.44;5014992;28;20534;-90
2022/02/27 10:17:34;;;;;;;3.80;3.23;;;4.90;50.20;;;3.54;51.81;99579.97;5017293;28;20435;-90
2022/02/27 10:20:05;;;;;;;6.73;4.30;;;4.90;50.40;;;3.49;52.80;99560.81;5017458;28;20846;-92